createdAt,value
2023-04-14T00:00:54.780Z,10.50
2023-04-14T00:03:24.493Z,10.50
2023-04-14T00:05:52.775Z,10.50
2023-04-14T00:08:24.336Z,10.40
2023-04-14T00:10:52.479Z,10.50
2023-04-14T00:13:21.444Z,10.40
2023-04-14T00:15:49.546Z,10.50
2023-04-14T00:18:17.643Z,10.40
2023-04-14T00:20:48.934Z,10.40
2023-04-14T00:23:18.509Z,10.40
2023-04-14T00:25:47.661Z,10.40
2023-04-14T00:28:15.958Z,10.40
2023-04-14T00:30:44.558Z,10.40
2023-04-14T00:33:13.943Z,10.40
2023-04-14T00:35:42.045Z,10.40
2023-04-14T00:38:12.259Z,10.30
2023-04-14T00:40:40.639Z,10.30
2023-04-14T00:43:08.605Z,10.30
2023-04-14T00:45:42.252Z,10.30
2023-04-14T00:48:10.665Z,10.30
2023-04-14T00:50:38.704Z,10.30
2023-04-14T00:53:07.426Z,10.30
2023-04-14T00:55:37.013Z,10.30
2023-04-14T00:58:05.477Z,10.30
2023-04-14T01:00:35.056Z,10.20
2023-04-14T01:03:04.061Z,10.20
2023-04-14T01:05:33.617Z,10.20
2023-04-14T01:08:03.523Z,10.20
2023-04-14T01:10:36.238Z,10.10
2023-04-14T01:13:20.915Z,10.10
2023-04-14T01:15:53.734Z,10.10
2023-04-14T01:18:29.662Z,10.10
2023-04-14T01:21:02.127Z,10.00
2023-04-14T01:23:36.888Z,10.00
2023-04-14T01:26:23.131Z,9.90
2023-04-14T01:29:29.452Z,10.00
2023-04-14T01:32:03.467Z,9.90
2023-04-14T01:34:38.238Z,9.90
2023-04-14T01:37:31.835Z,9.90
2023-04-14T01:40:05.790Z,9.80
2023-04-14T01:42:38.903Z,9.80
2023-04-14T01:45:12.977Z,9.80
2023-04-14T01:47:44.986Z,9.70
2023-04-14T01:50:14.542Z,9.70
2023-04-14T01:52:47.830Z,9.70
2023-04-14T01:55:19.030Z,9.70
2023-04-14T01:58:10.180Z,9.70
2023-04-14T02:00:40.886Z,9.60
2023-04-14T02:03:11.701Z,9.70
2023-04-14T02:05:43.741Z,9.60
2023-04-14T02:08:14.876Z,9.60
2023-04-14T02:10:48.130Z,9.60
2023-04-14T02:13:19.203Z,9.60
2023-04-14T02:15:49.145Z,9.60
2023-04-14T02:18:23.942Z,9.60
2023-04-14T02:20:57.675Z,9.60
2023-04-14T02:23:28.438Z,9.60
2023-04-14T02:26:00.122Z,9.60
2023-04-14T02:28:33.558Z,9.60
2023-04-14T02:31:07.242Z,9.60
2023-04-14T02:33:39.942Z,9.60
2023-04-14T02:36:15.369Z,9.60
2023-04-14T02:38:47.765Z,9.60
2023-04-14T02:41:23.682Z,9.60
2023-04-14T02:44:05.241Z,9.60
2023-04-14T02:46:43.041Z,9.50
2023-04-14T02:49:16.829Z,9.50
2023-04-14T02:52:06.815Z,9.50
2023-04-14T02:54:39.200Z,9.50
2023-04-14T02:57:08.172Z,9.50
2023-04-14T02:59:37.457Z,9.50
2023-04-14T03:02:06.563Z,9.50
2023-04-14T03:04:39.487Z,9.50
2023-04-14T03:07:08.676Z,9.50
2023-04-14T03:09:37.406Z,9.50
2023-04-14T03:12:07.120Z,9.50
2023-04-14T03:14:37.732Z,9.50
2023-04-14T03:17:06.740Z,9.50
2023-04-14T03:19:38.131Z,9.50
2023-04-14T03:22:09.491Z,9.50
2023-04-14T03:24:39.062Z,9.50
2023-04-14T03:27:10.372Z,9.50
2023-04-14T03:29:42.491Z,9.50
2023-04-14T03:32:11.652Z,9.50
2023-04-14T03:34:44.129Z,9.50
2023-04-14T03:37:13.934Z,9.50
2023-04-14T03:39:43.558Z,9.50
2023-04-14T03:42:13.070Z,9.50
2023-04-14T03:44:46.076Z,9.50
2023-04-14T03:47:14.518Z,9.50
2023-04-14T03:49:46.864Z,9.50
2023-04-14T03:52:16.942Z,9.50
2023-04-14T03:54:47.571Z,9.50
2023-04-14T03:57:42.741Z,9.50
2023-04-14T04:00:13.687Z,9.40
2023-04-14T04:02:43.505Z,9.40
2023-04-14T04:05:14.402Z,9.40
2023-04-14T04:07:45.187Z,9.40
2023-04-14T04:10:15.190Z,9.40
2023-04-14T04:12:44.255Z,9.40
2023-04-14T04:15:12.880Z,9.40
2023-04-14T04:18:01.998Z,9.40
2023-04-14T04:20:34.177Z,9.40
2023-04-14T04:23:07.399Z,9.40
2023-04-14T04:25:37.598Z,9.40
2023-04-14T04:28:06.564Z,9.40
2023-04-14T04:30:39.667Z,9.40
2023-04-14T04:33:08.845Z,9.40
2023-04-14T04:35:38.687Z,9.40
2023-04-14T04:38:06.683Z,9.40
2023-04-14T04:40:38.407Z,9.40
2023-04-14T04:43:06.839Z,9.40
2023-04-14T04:46:09.676Z,9.40
2023-04-14T04:48:37.593Z,9.30
2023-04-14T04:51:07.172Z,9.30
2023-04-14T04:53:35.142Z,9.30
2023-04-14T04:56:03.086Z,9.30
2023-04-14T04:58:31.065Z,9.30
2023-04-14T05:00:59.211Z,9.40
2023-04-14T05:03:27.287Z,9.30
2023-04-14T05:05:55.225Z,9.30
2023-04-14T05:08:24.683Z,9.30
2023-04-14T05:10:52.604Z,9.30
2023-04-14T05:13:22.519Z,9.30
2023-04-14T05:15:50.674Z,9.30
2023-04-14T05:18:18.704Z,9.30
2023-04-14T05:20:46.715Z,9.30
2023-04-14T05:23:14.652Z,9.30
2023-04-14T05:25:45.326Z,9.30
2023-04-14T05:28:16.291Z,9.30
2023-04-14T05:30:44.198Z,9.30
2023-04-14T05:33:12.129Z,9.30
2023-04-14T05:35:40.430Z,9.30
2023-04-14T05:38:08.443Z,9.30
2023-04-14T05:40:36.468Z,9.30
2023-04-14T05:43:06.163Z,9.30
2023-04-14T05:45:34.736Z,9.30
2023-04-14T05:48:02.889Z,9.30
2023-04-14T05:50:30.971Z,9.30
2023-04-14T05:52:58.901Z,9.30
2023-04-14T05:55:27.119Z,9.30
2023-04-14T05:57:55.075Z,9.30
2023-04-14T06:00:25.262Z,9.30
2023-04-14T06:02:53.804Z,9.30
2023-04-14T06:05:24.236Z,9.30
2023-04-14T06:07:52.477Z,9.30
2023-04-14T06:10:20.766Z,9.30
2023-04-14T06:12:48.677Z,9.30
2023-04-14T06:15:16.829Z,9.30
2023-04-14T06:17:47.719Z,9.40
2023-04-14T06:20:15.788Z,9.40
2023-04-14T06:22:43.876Z,9.40
2023-04-14T06:25:12.259Z,9.40
2023-04-14T06:27:40.208Z,9.40
2023-04-14T06:30:09.247Z,9.40
2023-04-14T06:32:40.234Z,9.40
2023-04-14T06:35:19.041Z,9.40
2023-04-14T06:37:51.629Z,9.50
2023-04-14T06:40:20.043Z,9.50
2023-04-14T06:42:48.100Z,9.50
2023-04-14T06:45:16.319Z,9.50
2023-04-14T06:47:44.367Z,9.60
2023-04-14T06:50:14.712Z,9.60
2023-04-14T06:52:42.642Z,9.60
2023-04-14T06:55:11.213Z,9.60
2023-04-14T06:57:39.138Z,9.60
2023-04-14T07:00:09.514Z,9.70
2023-04-14T07:02:37.781Z,9.70
2023-04-14T07:05:07.296Z,9.70
2023-04-14T07:07:37.655Z,9.80
2023-04-14T07:10:06.716Z,9.70
2023-04-14T07:12:34.858Z,9.80
2023-04-14T07:15:02.798Z,9.90
2023-04-14T07:17:30.756Z,9.90
2023-04-14T07:19:58.702Z,9.90
2023-04-14T07:22:26.631Z,10.00
2023-04-14T07:24:56.115Z,10.10
2023-04-14T07:27:24.371Z,10.10
2023-04-14T07:29:53.543Z,10.00
2023-04-14T07:32:22.247Z,10.10
2023-04-14T07:34:50.473Z,10.10
2023-04-14T07:37:18.652Z,10.10
2023-04-14T07:39:46.608Z,10.10
2023-04-14T07:42:16.129Z,10.10
2023-04-14T07:44:44.182Z,10.20
2023-04-14T07:47:12.280Z,10.20
2023-04-14T07:49:40.564Z,10.30
2023-04-14T07:52:08.507Z,10.30
2023-04-14T07:54:36.719Z,10.30
2023-04-14T07:57:04.714Z,10.40
2023-04-14T07:59:34.066Z,10.50
2023-04-14T08:02:02.355Z,10.50
2023-04-14T08:04:31.088Z,10.50
2023-04-14T08:06:59.158Z,10.50
2023-04-14T08:09:27.126Z,10.50
2023-04-14T08:11:56.804Z,10.60
2023-04-14T08:14:24.854Z,10.60
2023-04-14T08:16:54.237Z,10.60
2023-04-14T08:19:22.210Z,10.70
2023-04-14T08:21:50.118Z,10.70
2023-04-14T08:24:18.114Z,10.80
2023-04-14T08:26:46.466Z,10.80
2023-04-14T08:29:14.502Z,10.80
2023-04-14T08:31:42.495Z,10.90
2023-04-14T08:34:12.103Z,10.90
2023-04-14T08:36:41.048Z,11.00
2023-04-14T08:39:09.224Z,11.00
2023-04-14T08:41:40.381Z,11.00
2023-04-14T08:44:09.356Z,10.90
2023-04-14T08:46:37.604Z,10.90
2023-04-14T08:49:06.823Z,10.90
2023-04-14T08:51:37.414Z,11.00
2023-04-14T08:54:09.418Z,11.00
2023-04-14T08:56:39.445Z,11.10
2023-04-14T08:59:07.952Z,11.10
2023-04-14T09:01:37.567Z,11.10
2023-04-14T09:04:06.570Z,11.20
2023-04-14T09:06:36.593Z,11.30
2023-04-14T09:09:07.544Z,11.30
2023-04-14T09:11:36.087Z,11.30
2023-04-14T09:14:04.992Z,11.40
2023-04-14T09:16:33.981Z,11.40
2023-04-14T09:19:02.162Z,11.40
2023-04-14T09:21:53.798Z,11.40
2023-04-14T09:24:30.037Z,11.40
2023-04-14T09:27:00.051Z,11.50
2023-04-14T09:29:28.192Z,11.60
2023-04-14T09:31:56.223Z,11.60
2023-04-14T09:34:24.452Z,11.60
2023-04-14T09:37:05.978Z,11.70
2023-04-14T09:39:34.101Z,11.70
2023-04-14T09:42:03.195Z,11.80
2023-04-14T09:44:31.865Z,11.90
2023-04-14T09:47:01.390Z,11.90
2023-04-14T09:49:29.982Z,11.90
2023-04-14T09:52:07.358Z,11.90
2023-04-14T09:54:35.908Z,12.00
2023-04-14T09:57:04.442Z,12.00
2023-04-14T09:59:34.325Z,12.00
2023-04-14T10:02:06.012Z,12.00
2023-04-14T10:04:34.496Z,12.10
2023-04-14T10:07:08.909Z,12.10
2023-04-14T10:09:38.497Z,12.20
2023-04-14T10:12:12.292Z,12.20
2023-04-14T10:14:41.258Z,12.30
2023-04-14T10:17:09.852Z,12.30
2023-04-14T10:19:38.955Z,12.30
2023-04-14T10:22:08.278Z,12.40
2023-04-14T10:24:37.013Z,12.40
2023-04-14T10:27:06.079Z,12.40
2023-04-14T10:29:34.046Z,12.50
2023-04-14T10:32:05.672Z,12.50
2023-04-14T10:34:34.448Z,12.50
2023-04-14T10:37:14.980Z,12.60
2023-04-14T10:39:43.886Z,12.60
2023-04-14T10:42:12.262Z,12.70
2023-04-14T10:44:40.393Z,12.80
2023-04-14T10:47:08.838Z,12.90
2023-04-14T10:49:38.259Z,13.00
2023-04-14T10:52:08.066Z,13.00
2023-04-14T10:55:01.135Z,13.00
2023-04-14T10:57:30.711Z,13.10
2023-04-14T10:59:59.811Z,13.10
2023-04-14T11:02:29.817Z,13.20
2023-04-14T11:05:05.838Z,13.20
2023-04-14T11:07:40.387Z,13.20
2023-04-14T11:10:31.416Z,13.30
2023-04-14T11:13:04.010Z,13.30
2023-04-14T11:15:45.814Z,13.40
2023-04-14T11:18:15.547Z,13.40
2023-04-14T11:21:04.731Z,13.50
2023-04-14T11:23:32.943Z,13.60
2023-04-14T11:26:03.311Z,13.60
2023-04-14T11:28:31.889Z,13.60
2023-04-14T11:31:01.336Z,13.70
2023-04-14T11:33:30.600Z,13.80
2023-04-14T11:35:59.397Z,13.80
2023-04-14T11:38:27.405Z,13.90
2023-04-14T11:40:56.708Z,13.90
2023-04-14T11:43:26.409Z,13.90
2023-04-14T11:45:54.792Z,14.00
2023-04-14T11:48:22.793Z,14.00
2023-04-14T11:50:50.922Z,14.00
2023-04-14T11:53:21.178Z,14.00
2023-04-14T11:55:51.923Z,14.00
2023-04-14T11:58:23.738Z,14.10
2023-04-14T12:00:56.066Z,14.10
2023-04-14T12:03:27.888Z,14.20
2023-04-14T12:05:58.691Z,14.20
2023-04-14T12:08:27.092Z,14.30
2023-04-14T12:10:56.219Z,14.30
2023-04-14T12:13:26.684Z,14.40
2023-04-14T12:15:56.822Z,14.30
2023-04-14T12:18:25.010Z,14.40
2023-04-14T12:20:54.954Z,14.40
2023-04-14T12:23:23.813Z,14.40
2023-04-14T12:25:52.541Z,14.40
2023-04-14T12:28:25.329Z,14.50
2023-04-14T12:31:00.123Z,14.50
2023-04-14T12:33:28.823Z,14.50
2023-04-14T12:36:02.780Z,14.60
2023-04-14T12:38:30.751Z,14.60
2023-04-14T12:40:58.883Z,14.60
2023-04-14T12:43:31.462Z,14.60
2023-04-14T12:46:01.097Z,14.60
2023-04-14T12:48:44.406Z,14.60
2023-04-14T12:51:13.877Z,14.60
2023-04-14T12:53:42.786Z,14.70
2023-04-14T12:56:12.237Z,14.70
2023-04-14T12:58:41.514Z,14.80
2023-04-14T13:01:12.222Z,14.90
2023-04-14T13:03:46.037Z,14.90
2023-04-14T13:06:16.398Z,15.00
2023-04-14T13:08:45.968Z,15.00
2023-04-14T13:11:14.510Z,15.10
2023-04-14T13:13:42.740Z,15.20
2023-04-14T13:16:16.223Z,15.20
2023-04-14T13:18:45.749Z,15.30
2023-04-14T13:21:17.708Z,15.20
2023-04-14T13:23:48.022Z,15.20
2023-04-14T13:26:16.076Z,15.20
2023-04-14T13:28:44.227Z,15.20
2023-04-14T13:31:17.169Z,15.20
2023-04-14T13:33:45.527Z,15.20
2023-04-14T13:36:13.410Z,15.20
2023-04-14T13:38:42.823Z,15.40
2023-04-14T13:41:11.154Z,15.60
2023-04-14T13:43:39.342Z,15.90
2023-04-14T13:46:07.609Z,16.10
2023-04-14T13:48:36.969Z,16.40
2023-04-14T13:51:05.142Z,16.70
2023-04-14T13:53:33.077Z,16.90
2023-04-14T13:56:01.026Z,17.00
2023-04-14T13:58:29.003Z,17.10
2023-04-14T14:00:57.345Z,17.20
2023-04-14T14:03:27.485Z,17.20
2023-04-14T14:05:58.514Z,17.20
2023-04-14T14:08:26.855Z,17.30
2023-04-14T14:10:54.808Z,17.30
2023-04-14T14:13:22.782Z,17.20
2023-04-14T14:15:50.975Z,17.00
2023-04-14T14:18:19.007Z,16.90
2023-04-14T14:20:47.342Z,16.90
2023-04-14T14:23:16.748Z,16.80
2023-04-14T14:25:45.809Z,16.80
2023-04-14T14:28:13.982Z,16.90
2023-04-14T14:30:42.371Z,17.10
2023-04-14T14:33:10.596Z,17.30
2023-04-14T14:35:39.302Z,17.40
2023-04-14T14:38:08.539Z,17.50
2023-04-14T14:40:37.937Z,17.40
2023-04-14T14:43:06.331Z,17.30
2023-04-14T14:45:34.346Z,17.30
2023-04-14T14:48:02.652Z,17.30
2023-04-14T14:50:30.772Z,17.40
2023-04-14T14:52:58.708Z,17.50
2023-04-14T14:55:27.256Z,17.70
2023-04-14T14:57:56.619Z,17.90
2023-04-14T15:00:24.748Z,18.00
2023-04-14T15:02:53.445Z,17.90
2023-04-14T15:05:22.732Z,17.80
2023-04-14T15:07:51.039Z,17.70
2023-04-14T15:10:19.152Z,17.60
2023-04-14T15:12:47.140Z,17.60
2023-04-14T15:15:20.164Z,17.50
2023-04-14T15:17:48.486Z,17.40
2023-04-14T15:20:19.554Z,17.20
2023-04-14T15:22:47.488Z,17.10
2023-04-14T15:25:15.448Z,17.00
2023-04-14T15:27:43.541Z,16.90
2023-04-14T15:30:12.187Z,16.80
2023-04-14T15:32:41.580Z,16.70
2023-04-14T15:35:10.640Z,16.60
2023-04-14T15:37:38.630Z,16.60
2023-04-14T15:40:09.539Z,16.50
2023-04-14T15:42:37.711Z,16.50
2023-04-14T15:45:06.686Z,16.50
2023-04-14T15:47:34.772Z,16.40
2023-04-14T15:50:09.771Z,16.50
2023-04-14T15:52:39.116Z,16.50
2023-04-14T15:55:08.460Z,16.50
2023-04-14T15:57:37.146Z,16.60
2023-04-14T16:00:07.336Z,16.70
2023-04-14T16:02:35.633Z,16.70
2023-04-14T16:05:05.625Z,16.60
2023-04-14T16:07:33.715Z,16.60
2023-04-14T16:10:02.074Z,16.50
2023-04-14T16:12:30.263Z,16.50
2023-04-14T16:14:58.289Z,16.40
2023-04-14T16:17:26.537Z,16.30
2023-04-14T16:19:54.689Z,16.20
2023-04-14T16:22:23.952Z,16.20
2023-04-14T16:24:51.974Z,16.10
2023-04-14T16:27:20.103Z,16.00
2023-04-14T16:29:48.084Z,16.00
2023-04-14T16:32:17.191Z,16.00
2023-04-14T16:34:45.307Z,15.90
2023-04-14T16:37:13.413Z,15.90
2023-04-14T16:39:42.752Z,15.90
2023-04-14T16:42:10.694Z,15.80
2023-04-14T16:44:38.769Z,15.80
2023-04-14T16:47:06.734Z,15.80
2023-04-14T16:49:34.667Z,15.80
2023-04-14T16:52:02.747Z,15.80
2023-04-14T16:54:30.742Z,15.80
2023-04-14T16:57:00.610Z,15.80
2023-04-14T16:59:28.578Z,15.70
2023-04-14T17:01:56.780Z,15.70
2023-04-14T17:04:25.400Z,15.70
2023-04-14T17:06:53.577Z,15.70
2023-04-14T17:09:21.551Z,15.70
2023-04-14T17:11:49.529Z,15.60
2023-04-14T17:14:18.846Z,15.60
2023-04-14T17:16:46.857Z,15.60
2023-04-14T17:19:16.889Z,15.60
2023-04-14T17:21:45.834Z,15.50
2023-04-14T17:24:14.606Z,15.50
2023-04-14T17:26:42.964Z,15.50
2023-04-14T17:29:10.940Z,15.50
2023-04-14T17:31:40.388Z,15.50
2023-04-14T17:34:11.475Z,15.50
2023-04-14T17:36:39.979Z,15.50
2023-04-14T17:39:08.367Z,15.40
2023-04-14T17:41:37.111Z,15.40
2023-04-14T17:44:05.240Z,15.40
2023-04-14T17:46:34.473Z,15.40
2023-04-14T17:49:04.224Z,15.40
2023-04-14T17:51:32.768Z,15.30
2023-04-14T17:54:01.072Z,15.30
2023-04-14T17:56:30.951Z,15.30
2023-04-14T17:58:59.493Z,15.30
2023-04-14T18:01:27.484Z,15.30
2023-04-14T18:03:58.428Z,15.30
2023-04-14T18:06:27.909Z,15.30
2023-04-14T18:08:55.988Z,15.20
2023-04-14T18:11:24.409Z,15.20
2023-04-14T18:13:52.486Z,15.20
2023-04-14T18:16:20.590Z,15.20
2023-04-14T18:19:09.288Z,15.20
2023-04-14T18:21:40.093Z,15.10
2023-04-14T18:26:43.353Z,15.10
2023-04-14T18:29:12.716Z,15.00
2023-04-14T18:31:45.240Z,15.00
2023-04-14T18:34:13.897Z,15.00
2023-04-14T18:36:46.036Z,15.00
2023-04-14T18:39:16.356Z,15.00
2023-04-14T18:41:46.896Z,14.90
2023-04-14T18:44:17.112Z,14.90
2023-04-14T18:46:45.447Z,14.80
2023-04-14T18:49:13.641Z,14.80
2023-04-14T18:51:44.842Z,14.80
2023-04-14T18:54:15.814Z,14.80
2023-04-14T18:56:43.829Z,14.70
2023-04-14T18:59:12.598Z,14.70
2023-04-14T19:01:40.731Z,14.60
2023-04-14T19:04:09.156Z,14.60
2023-04-14T19:06:38.819Z,14.60
2023-04-14T19:09:11.726Z,14.60
2023-04-14T19:11:41.637Z,14.50
2023-04-14T19:14:09.806Z,14.50
2023-04-14T19:16:42.927Z,14.50
2023-04-14T19:19:12.564Z,14.40
2023-04-14T19:21:40.648Z,14.40
2023-04-14T19:24:10.002Z,14.40
2023-04-14T19:26:40.908Z,14.40
2023-04-14T19:29:12.681Z,14.30
2023-04-14T19:31:40.788Z,14.30
2023-04-14T19:34:09.243Z,14.20
2023-04-14T19:36:37.881Z,14.20
2023-04-14T19:39:29.806Z,14.20
2023-04-14T19:41:58.390Z,14.10
2023-04-14T19:44:28.384Z,14.10
2023-04-14T19:46:56.761Z,14.10
2023-04-14T19:49:29.453Z,14.10
2023-04-14T19:51:58.202Z,14.00
2023-04-14T19:54:28.106Z,14.00
2023-04-14T19:56:58.901Z,14.00
2023-04-14T19:59:29.750Z,13.90
2023-04-14T20:01:59.419Z,13.90
2023-04-14T20:04:27.656Z,13.90
2023-04-14T20:06:56.621Z,13.90
2023-04-14T20:09:24.791Z,13.90
2023-04-14T20:11:56.772Z,13.90
2023-04-14T20:14:46.268Z,13.80
2023-04-14T20:17:35.166Z,13.80
2023-04-14T20:20:06.890Z,13.80
2023-04-14T20:22:38.477Z,13.70
2023-04-14T20:25:09.369Z,13.70
2023-04-14T20:27:42.478Z,13.70
2023-04-14T20:30:12.682Z,13.70
2023-04-14T20:32:42.004Z,13.70
2023-04-14T20:35:12.661Z,13.70
2023-04-14T20:38:01.017Z,13.60
2023-04-14T20:40:30.370Z,13.60
2023-04-14T20:43:04.209Z,13.60
2023-04-14T20:45:33.708Z,13.60
2023-04-14T20:48:02.764Z,13.60
2023-04-14T20:50:32.510Z,13.60
2023-04-14T20:53:01.417Z,13.60
2023-04-14T20:55:31.816Z,13.60
2023-04-14T20:58:04.277Z,13.50
2023-04-14T21:00:41.766Z,13.50
2023-04-14T21:03:11.197Z,13.50
2023-04-14T21:05:40.094Z,13.50
2023-04-14T21:08:33.319Z,13.50
2023-04-14T21:11:16.563Z,13.50
2023-04-14T21:15:28.892Z,13.50
2023-04-14T21:16:59.272Z,13.40
2023-04-14T21:19:31.241Z,13.50
2023-04-14T21:22:21.995Z,13.40
2023-04-14T21:25:32.635Z,13.40
2023-04-14T21:28:20.780Z,13.40
2023-04-14T21:31:13.741Z,13.40
2023-04-14T21:34:08.034Z,13.40
2023-04-14T21:36:39.255Z,13.40
2023-04-14T21:39:31.797Z,13.40
2023-04-14T21:42:03.790Z,13.40
2023-04-14T21:44:33.705Z,13.30
2023-04-14T21:47:03.919Z,13.30
2023-04-14T21:49:54.482Z,13.30
2023-04-14T21:52:23.021Z,13.30
2023-04-14T21:54:53.475Z,13.30
2023-04-14T21:57:48.927Z,13.30
2023-04-14T22:00:19.699Z,13.20
2023-04-14T22:03:11.902Z,13.20
2023-04-14T22:05:42.198Z,13.20
2023-04-14T22:08:14.123Z,13.20
2023-04-14T22:10:43.485Z,13.20
2023-04-14T22:13:32.323Z,13.20
2023-04-14T22:16:08.235Z,13.20
2023-04-14T22:18:40.719Z,13.10
2023-04-14T22:21:13.349Z,13.10
2023-04-14T22:24:03.008Z,13.00
2023-04-14T22:26:41.740Z,13.00
2023-04-14T22:29:52.194Z,13.00
2023-04-14T22:32:23.463Z,13.00
2023-04-14T22:35:14.310Z,13.00
2023-04-14T22:37:43.715Z,12.90
2023-04-14T22:40:12.674Z,12.90
2023-04-14T22:42:43.683Z,12.90
2023-04-14T22:46:17.798Z,12.90
2023-04-14T22:48:47.796Z,12.90
2023-04-14T22:51:22.548Z,12.90
2023-04-14T22:53:52.954Z,12.80
2023-04-14T22:56:24.821Z,12.80
2023-04-14T22:59:01.244Z,12.80
2023-04-14T23:01:32.114Z,12.80
2023-04-14T23:04:01.916Z,12.80
2023-04-14T23:06:34.580Z,12.80
2023-04-14T23:09:03.439Z,12.80
2023-04-14T23:11:33.762Z,12.80
2023-04-14T23:14:16.368Z,12.70
2023-04-14T23:17:05.768Z,12.70
2023-04-14T23:19:38.318Z,12.70
2023-04-14T23:22:08.832Z,12.70
2023-04-14T23:24:39.854Z,12.60
2023-04-14T23:27:29.122Z,12.70
2023-04-14T23:30:00.764Z,12.60
2023-04-14T23:32:52.443Z,12.70
2023-04-14T23:35:22.442Z,12.60
2023-04-14T23:37:56.795Z,12.60
2023-04-14T23:40:49.743Z,12.60
2023-04-14T23:43:20.695Z,12.60
2023-04-14T23:45:52.645Z,12.60
2023-04-14T23:48:28.718Z,12.60
2023-04-14T23:51:38.648Z,12.60
2023-04-14T23:54:09.679Z,12.60
2023-04-14T23:57:01.969Z,12.60
2023-04-14T23:59:39.183Z,12.60
